sensor_id;sensor_type;location;lat;lon;timestamp;P1;durP1;ratioP1;P2;durP2;ratioP2
54328;SDS011;40710;51.120;13.136;2022-11-20T00:00:49;38.30;;;35.78;;
54328;SDS011;40710;51.120;13.136;2022-11-20T00:03:13;37.55;;;35.24;;
54328;SDS011;40710;51.120;13.136;2022-11-20T00:05:38;38.43;;;35.83;;
54328;SDS011;40710;51.120;13.136;2022-11-20T00:08:03;37.79;;;35.49;;
54328;SDS011;40710;51.120;13.136;2022-11-20T00:10:28;37.99;;;35.27;;
54328;SDS011;40710;51.120;13.136;2022-11-20T00:12:52;38.23;;;35.82;;
54328;SDS011;40710;51.120;13.136;2022-11-20T00:15:17;38.46;;;35.96;;
54328;SDS011;40710;51.120;13.136;2022-11-20T00:17:41;38.93;;;36.02;;
54328;SDS011;40710;51.120;13.136;2022-11-20T00:20:06;37.27;;;34.94;;
54328;SDS011;40710;51.120;13.136;2022-11-20T00:22:31;38.54;;;35.77;;
54328;SDS011;40710;51.120;13.136;2022-11-20T00:24:56;38.22;;;35.78;;
54328;SDS011;40710;51.120;13.136;2022-11-20T00:27:22;38.74;;;36.05;;
54328;SDS011;40710;51.120;13.136;2022-11-20T00:29:46;38.68;;;36.01;;
54328;SDS011;40710;51.120;13.136;2022-11-20T00:32:11;37.44;;;35.18;;
54328;SDS011;40710;51.120;13.136;2022-11-20T00:34:35;36.74;;;34.20;;
54328;SDS011;40710;51.120;13.136;2022-11-20T00:37:00;37.21;;;34.68;;
54328;SDS011;40710;51.120;13.136;2022-11-20T00:39:24;37.25;;;34.63;;
54328;SDS011;40710;51.120;13.136;2022-11-20T00:41:49;38.42;;;35.48;;
54328;SDS011;40710;51.120;13.136;2022-11-20T00:44:14;37.59;;;35.07;;
54328;SDS011;40710;51.120;13.136;2022-11-20T00:46:38;35.73;;;33.41;;
54328;SDS011;40710;51.120;13.136;2022-11-20T00:49:03;35.55;;;33.19;;
54328;SDS011;40710;51.120;13.136;2022-11-20T00:51:28;36.10;;;33.85;;
54328;SDS011;40710;51.120;13.136;2022-11-20T00:53:54;36.19;;;33.85;;
54328;SDS011;40710;51.120;13.136;2022-11-20T00:56:19;37.08;;;34.31;;
54328;SDS011;40710;51.120;13.136;2022-11-20T00:58:45;37.64;;;34.67;;
54328;SDS011;40710;51.120;13.136;2022-11-20T01:01:13;36.25;;;33.68;;
54328;SDS011;40710;51.120;13.136;2022-11-20T01:03:40;37.18;;;34.52;;
54328;SDS011;40710;51.120;13.136;2022-11-20T01:06:08;39.72;;;36.81;;
54328;SDS011;40710;51.120;13.136;2022-11-20T01:08:35;40.80;;;38.24;;
54328;SDS011;40710;51.120;13.136;2022-11-20T01:11:02;37.25;;;34.75;;
54328;SDS011;40710;51.120;13.136;2022-11-20T01:13:29;34.90;;;32.75;;
54328;SDS011;40710;51.120;13.136;2022-11-20T01:16:06;36.96;;;34.12;;
54328;SDS011;40710;51.120;13.136;2022-11-20T01:18:31;35.91;;;33.26;;
54328;SDS011;40710;51.120;13.136;2022-11-20T01:20:59;37.21;;;34.50;;
54328;SDS011;40710;51.120;13.136;2022-11-20T01:23:35;36.86;;;34.21;;
54328;SDS011;40710;51.120;13.136;2022-11-20T01:26:02;35.43;;;32.98;;
54328;SDS011;40710;51.120;13.136;2022-11-20T01:28:28;35.58;;;33.23;;
54328;SDS011;40710;51.120;13.136;2022-11-20T01:30:53;35.51;;;33.29;;
54328;SDS011;40710;51.120;13.136;2022-11-20T01:33:17;36.26;;;33.97;;
54328;SDS011;40710;51.120;13.136;2022-11-20T01:35:42;35.47;;;33.27;;
54328;SDS011;40710;51.120;13.136;2022-11-20T01:38:06;34.78;;;32.83;;
54328;SDS011;40710;51.120;13.136;2022-11-20T01:40:31;34.82;;;32.76;;
54328;SDS011;40710;51.120;13.136;2022-11-20T01:43:00;35.39;;;33.12;;
54328;SDS011;40710;51.120;13.136;2022-11-20T01:48:42;34.54;;;32.14;;
54328;SDS011;40710;51.120;13.136;2022-11-20T01:51:15;35.00;;;32.52;;
54328;SDS011;40710;51.120;13.136;2022-11-20T01:53:51;36.93;;;34.02;;
54328;SDS011;40710;51.120;13.136;2022-11-20T01:56:20;35.52;;;32.92;;
54328;SDS011;40710;51.120;13.136;2022-11-20T01:58:51;34.93;;;32.31;;
54328;SDS011;40710;51.120;13.136;2022-11-20T02:01:20;34.60;;;32.45;;
54328;SDS011;40710;51.120;13.136;2022-11-20T02:03:45;35.49;;;33.04;;
54328;SDS011;40710;51.120;13.136;2022-11-20T02:06:17;34.16;;;31.75;;
54328;SDS011;40710;51.120;13.136;2022-11-20T02:08:48;33.47;;;31.46;;
54328;SDS011;40710;51.120;13.136;2022-11-20T02:11:13;34.06;;;31.85;;
54328;SDS011;40710;51.120;13.136;2022-11-20T02:13:38;35.20;;;32.41;;
54328;SDS011;40710;51.120;13.136;2022-11-20T02:16:20;34.69;;;32.10;;
54328;SDS011;40710;51.120;13.136;2022-11-20T02:18:48;33.00;;;30.93;;
54328;SDS011;40710;51.120;13.136;2022-11-20T02:21:35;33.96;;;31.72;;
54328;SDS011;40710;51.120;13.136;2022-11-20T02:26:31;33.76;;;31.50;;
54328;SDS011;40710;51.120;13.136;2022-11-20T02:29:02;33.88;;;31.32;;
54328;SDS011;40710;51.120;13.136;2022-11-20T02:31:28;32.64;;;30.67;;
54328;SDS011;40710;51.120;13.136;2022-11-20T02:33:56;32.70;;;30.47;;
54328;SDS011;40710;51.120;13.136;2022-11-20T02:36:21;34.01;;;31.36;;
54328;SDS011;40710;51.120;13.136;2022-11-20T02:38:46;32.99;;;31.11;;
54328;SDS011;40710;51.120;13.136;2022-11-20T02:41:10;32.58;;;30.79;;
54328;SDS011;40710;51.120;13.136;2022-11-20T02:43:35;32.17;;;30.42;;
54328;SDS011;40710;51.120;13.136;2022-11-20T02:45:59;32.64;;;30.24;;
54328;SDS011;40710;51.120;13.136;2022-11-20T02:48:24;32.55;;;30.23;;
54328;SDS011;40710;51.120;13.136;2022-11-20T02:50:48;33.72;;;31.35;;
54328;SDS011;40710;51.120;13.136;2022-11-20T02:53:13;33.56;;;31.14;;
54328;SDS011;40710;51.120;13.136;2022-11-20T02:55:38;33.65;;;31.31;;
54328;SDS011;40710;51.120;13.136;2022-11-20T02:58:02;32.19;;;30.19;;
54328;SDS011;40710;51.120;13.136;2022-11-20T03:00:27;32.49;;;30.32;;
54328;SDS011;40710;51.120;13.136;2022-11-20T03:02:51;33.14;;;30.52;;
54328;SDS011;40710;51.120;13.136;2022-11-20T03:05:16;31.30;;;29.38;;
54328;SDS011;40710;51.120;13.136;2022-11-20T03:07:40;33.04;;;30.43;;
54328;SDS011;40710;51.120;13.136;2022-11-20T03:10:07;31.84;;;29.64;;
54328;SDS011;40710;51.120;13.136;2022-11-20T03:12:32;31.09;;;29.11;;
54328;SDS011;40710;51.120;13.136;2022-11-20T03:14:56;32.71;;;30.30;;
54328;SDS011;40710;51.120;13.136;2022-11-20T03:17:21;31.83;;;29.17;;
54328;SDS011;40710;51.120;13.136;2022-11-20T03:19:45;31.05;;;28.90;;
54328;SDS011;40710;51.120;13.136;2022-11-20T03:22:10;31.87;;;29.81;;
54328;SDS011;40710;51.120;13.136;2022-11-20T03:24:35;31.28;;;29.37;;
54328;SDS011;40710;51.120;13.136;2022-11-20T03:26:59;31.70;;;29.31;;
54328;SDS011;40710;51.120;13.136;2022-11-20T03:29:24;31.31;;;29.21;;
54328;SDS011;40710;51.120;13.136;2022-11-20T03:31:49;29.70;;;27.92;;
54328;SDS011;40710;51.120;13.136;2022-11-20T03:34:13;31.04;;;28.85;;
54328;SDS011;40710;51.120;13.136;2022-11-20T03:36:42;30.70;;;28.57;;
54328;SDS011;40710;51.120;13.136;2022-11-20T03:39:07;31.17;;;29.13;;
54328;SDS011;40710;51.120;13.136;2022-11-20T03:41:35;31.44;;;29.20;;
54328;SDS011;40710;51.120;13.136;2022-11-20T03:44:03;30.81;;;28.85;;
54328;SDS011;40710;51.120;13.136;2022-11-20T03:46:29;30.89;;;28.86;;
54328;SDS011;40710;51.120;13.136;2022-11-20T03:48:54;31.19;;;29.14;;
54328;SDS011;40710;51.120;13.136;2022-11-20T03:51:20;88.31;;;82.21;;
54328;SDS011;40710;51.120;13.136;2022-11-20T03:53:46;75.12;;;69.43;;
54328;SDS011;40710;51.120;13.136;2022-11-20T03:56:13;34.50;;;32.08;;
54328;SDS011;40710;51.120;13.136;2022-11-20T03:58:39;30.69;;;28.78;;
54328;SDS011;40710;51.120;13.136;2022-11-20T04:03:34;29.39;;;27.74;;
54328;SDS011;40710;51.120;13.136;2022-11-20T04:06:06;29.48;;;27.82;;
54328;SDS011;40710;51.120;13.136;2022-11-20T04:08:34;29.77;;;28.16;;
54328;SDS011;40710;51.120;13.136;2022-11-20T04:13:41;32.01;;;29.93;;
54328;SDS011;40710;51.120;13.136;2022-11-20T04:16:07;31.09;;;29.09;;
54328;SDS011;40710;51.120;13.136;2022-11-20T04:18:33;30.92;;;29.19;;
54328;SDS011;40710;51.120;13.136;2022-11-20T04:20:59;29.99;;;28.13;;
54328;SDS011;40710;51.120;13.136;2022-11-20T04:23:24;30.36;;;28.46;;
54328;SDS011;40710;51.120;13.136;2022-11-20T04:25:49;30.20;;;28.33;;
54328;SDS011;40710;51.120;13.136;2022-11-20T04:28:14;30.67;;;28.58;;
54328;SDS011;40710;51.120;13.136;2022-11-20T04:30:38;29.58;;;27.63;;
54328;SDS011;40710;51.120;13.136;2022-11-20T04:33:03;30.35;;;28.09;;
54328;SDS011;40710;51.120;13.136;2022-11-20T04:35:27;30.03;;;27.82;;
54328;SDS011;40710;51.120;13.136;2022-11-20T04:37:52;29.22;;;27.19;;
54328;SDS011;40710;51.120;13.136;2022-11-20T04:40:16;30.60;;;28.06;;
54328;SDS011;40710;51.120;13.136;2022-11-20T04:42:41;29.53;;;27.65;;
54328;SDS011;40710;51.120;13.136;2022-11-20T04:45:05;30.27;;;28.00;;
54328;SDS011;40710;51.120;13.136;2022-11-20T04:47:30;29.87;;;27.57;;
54328;SDS011;40710;51.120;13.136;2022-11-20T04:49:55;29.97;;;27.88;;
54328;SDS011;40710;51.120;13.136;2022-11-20T04:52:19;28.73;;;27.23;;
54328;SDS011;40710;51.120;13.136;2022-11-20T04:54:44;29.90;;;28.09;;
54328;SDS011;40710;51.120;13.136;2022-11-20T04:57:08;29.90;;;28.05;;
54328;SDS011;40710;51.120;13.136;2022-11-20T04:59:33;29.40;;;27.44;;
54328;SDS011;40710;51.120;13.136;2022-11-20T05:01:58;29.05;;;27.10;;
54328;SDS011;40710;51.120;13.136;2022-11-20T05:04:22;29.38;;;27.50;;
54328;SDS011;40710;51.120;13.136;2022-11-20T05:06:47;28.49;;;26.66;;
54328;SDS011;40710;51.120;13.136;2022-11-20T05:09:12;28.91;;;26.86;;
54328;SDS011;40710;51.120;13.136;2022-11-20T05:11:37;28.94;;;27.16;;
54328;SDS011;40710;51.120;13.136;2022-11-20T05:14:01;27.67;;;25.67;;
54328;SDS011;40710;51.120;13.136;2022-11-20T05:16:26;28.57;;;26.37;;
54328;SDS011;40710;51.120;13.136;2022-11-20T05:18:51;28.15;;;26.48;;
54328;SDS011;40710;51.120;13.136;2022-11-20T05:21:18;28.61;;;26.95;;
54328;SDS011;40710;51.120;13.136;2022-11-20T05:23:43;27.83;;;26.06;;
54328;SDS011;40710;51.120;13.136;2022-11-20T05:26:12;28.62;;;26.75;;
54328;SDS011;40710;51.120;13.136;2022-11-20T05:28:45;27.84;;;26.10;;
54328;SDS011;40710;51.120;13.136;2022-11-20T05:31:15;27.39;;;25.83;;
54328;SDS011;40710;51.120;13.136;2022-11-20T05:33:42;27.22;;;25.44;;
54328;SDS011;40710;51.120;13.136;2022-11-20T05:36:08;26.35;;;24.90;;
54328;SDS011;40710;51.120;13.136;2022-11-20T05:38:34;26.62;;;24.67;;
54328;SDS011;40710;51.120;13.136;2022-11-20T05:41:02;26.16;;;24.46;;
54328;SDS011;40710;51.120;13.136;2022-11-20T05:43:31;26.23;;;24.59;;
54328;SDS011;40710;51.120;13.136;2022-11-20T05:45:57;27.23;;;25.58;;
54328;SDS011;40710;51.120;13.136;2022-11-20T05:48:22;24.80;;;23.60;;
54328;SDS011;40710;51.120;13.136;2022-11-20T05:50:47;25.95;;;24.35;;
54328;SDS011;40710;51.120;13.136;2022-11-20T05:53:12;25.83;;;24.15;;
54328;SDS011;40710;51.120;13.136;2022-11-20T05:55:37;25.72;;;24.18;;
54328;SDS011;40710;51.120;13.136;2022-11-20T05:58:02;25.93;;;24.28;;
54328;SDS011;40710;51.120;13.136;2022-11-20T06:00:26;26.36;;;24.59;;
54328;SDS011;40710;51.120;13.136;2022-11-20T06:02:51;25.40;;;23.83;;
54328;SDS011;40710;51.120;13.136;2022-11-20T06:05:16;25.20;;;23.79;;
54328;SDS011;40710;51.120;13.136;2022-11-20T06:07:40;25.95;;;24.50;;
54328;SDS011;40710;51.120;13.136;2022-11-20T06:10:05;26.69;;;24.88;;
54328;SDS011;40710;51.120;13.136;2022-11-20T06:12:31;24.58;;;23.62;;
54328;SDS011;40710;51.120;13.136;2022-11-20T06:14:56;25.00;;;23.72;;
54328;SDS011;40710;51.120;13.136;2022-11-20T06:17:21;25.21;;;23.69;;
54328;SDS011;40710;51.120;13.136;2022-11-20T06:19:45;24.82;;;23.47;;
54328;SDS011;40710;51.120;13.136;2022-11-20T06:22:10;25.30;;;23.67;;
54328;SDS011;40710;51.120;13.136;2022-11-20T06:24:35;24.80;;;23.39;;
54328;SDS011;40710;51.120;13.136;2022-11-20T06:26:59;23.42;;;21.85;;
54328;SDS011;40710;51.120;13.136;2022-11-20T06:29:24;22.91;;;21.52;;
54328;SDS011;40710;51.120;13.136;2022-11-20T06:31:48;23.85;;;22.47;;
54328;SDS011;40710;51.120;13.136;2022-11-20T06:34:13;22.52;;;21.16;;
54328;SDS011;40710;51.120;13.136;2022-11-20T06:36:38;23.34;;;21.90;;
54328;SDS011;40710;51.120;13.136;2022-11-20T06:39:02;22.73;;;21.34;;
54328;SDS011;40710;51.120;13.136;2022-11-20T06:41:27;22.82;;;21.35;;
54328;SDS011;40710;51.120;13.136;2022-11-20T06:43:52;23.31;;;21.87;;
54328;SDS011;40710;51.120;13.136;2022-11-20T06:46:17;22.82;;;21.41;;
54328;SDS011;40710;51.120;13.136;2022-11-20T06:48:43;22.35;;;21.30;;
54328;SDS011;40710;51.120;13.136;2022-11-20T06:51:08;23.99;;;22.57;;
54328;SDS011;40710;51.120;13.136;2022-11-20T06:53:34;25.19;;;23.35;;
54328;SDS011;40710;51.120;13.136;2022-11-20T06:55:59;24.45;;;23.01;;
54328;SDS011;40710;51.120;13.136;2022-11-20T06:58:25;24.69;;;23.35;;
54328;SDS011;40710;51.120;13.136;2022-11-20T07:00:52;24.59;;;23.10;;
54328;SDS011;40710;51.120;13.136;2022-11-20T07:03:16;23.37;;;22.02;;
54328;SDS011;40710;51.120;13.136;2022-11-20T07:05:41;23.53;;;22.20;;
54328;SDS011;40710;51.120;13.136;2022-11-20T07:08:05;24.40;;;22.89;;
54328;SDS011;40710;51.120;13.136;2022-11-20T07:10:30;24.19;;;22.90;;
54328;SDS011;40710;51.120;13.136;2022-11-20T07:12:55;25.57;;;24.00;;
54328;SDS011;40710;51.120;13.136;2022-11-20T07:15:20;26.59;;;24.93;;
54328;SDS011;40710;51.120;13.136;2022-11-20T07:17:47;25.05;;;23.36;;
54328;SDS011;40710;51.120;13.136;2022-11-20T07:20:12;25.41;;;23.91;;
54328;SDS011;40710;51.120;13.136;2022-11-20T07:22:37;26.79;;;25.26;;
54328;SDS011;40710;51.120;13.136;2022-11-20T07:25:02;27.17;;;25.63;;
54328;SDS011;40710;51.120;13.136;2022-11-20T07:27:28;26.82;;;25.66;;
54328;SDS011;40710;51.120;13.136;2022-11-20T07:29:53;24.60;;;23.47;;
54328;SDS011;40710;51.120;13.136;2022-11-20T07:32:17;23.68;;;22.60;;
54328;SDS011;40710;51.120;13.136;2022-11-20T07:34:42;22.62;;;21.41;;
54328;SDS011;40710;51.120;13.136;2022-11-20T07:37:07;24.10;;;22.57;;
54328;SDS011;40710;51.120;13.136;2022-11-20T07:39:31;23.57;;;22.20;;
54328;SDS011;40710;51.120;13.136;2022-11-20T07:41:56;25.59;;;23.97;;
54328;SDS011;40710;51.120;13.136;2022-11-20T07:44:20;25.59;;;24.02;;
54328;SDS011;40710;51.120;13.136;2022-11-20T07:46:45;25.56;;;24.21;;
54328;SDS011;40710;51.120;13.136;2022-11-20T07:49:09;25.95;;;24.30;;
54328;SDS011;40710;51.120;13.136;2022-11-20T07:51:34;22.56;;;21.64;;
54328;SDS011;40710;51.120;13.136;2022-11-20T07:53:58;25.00;;;23.46;;
54328;SDS011;40710;51.120;13.136;2022-11-20T07:56:23;25.14;;;23.50;;
54328;SDS011;40710;51.120;13.136;2022-11-20T07:58:47;22.16;;;21.07;;
54328;SDS011;40710;51.120;13.136;2022-11-20T08:01:12;22.07;;;20.85;;
54328;SDS011;40710;51.120;13.136;2022-11-20T08:03:37;22.22;;;20.97;;
54328;SDS011;40710;51.120;13.136;2022-11-20T08:06:01;22.96;;;21.83;;
54328;SDS011;40710;51.120;13.136;2022-11-20T08:08:26;23.57;;;22.24;;
54328;SDS011;40710;51.120;13.136;2022-11-20T08:10:51;24.47;;;23.42;;
54328;SDS011;40710;51.120;13.136;2022-11-20T08:13:16;26.04;;;24.29;;
54328;SDS011;40710;51.120;13.136;2022-11-20T08:15:59;27.05;;;25.04;;
54328;SDS011;40710;51.120;13.136;2022-11-20T08:18:24;25.01;;;23.36;;
54328;SDS011;40710;51.120;13.136;2022-11-20T08:20:48;23.10;;;22.13;;
54328;SDS011;40710;51.120;13.136;2022-11-20T08:23:13;23.53;;;22.23;;
54328;SDS011;40710;51.120;13.136;2022-11-20T08:25:38;25.57;;;24.24;;
54328;SDS011;40710;51.120;13.136;2022-11-20T08:28:03;22.17;;;21.35;;
54328;SDS011;40710;51.120;13.136;2022-11-20T08:30:30;21.97;;;20.95;;
54328;SDS011;40710;51.120;13.136;2022-11-20T08:32:59;20.58;;;19.37;;
54328;SDS011;40710;51.120;13.136;2022-11-20T08:35:26;20.68;;;19.60;;
54328;SDS011;40710;51.120;13.136;2022-11-20T08:37:51;21.05;;;19.99;;
54328;SDS011;40710;51.120;13.136;2022-11-20T08:40:16;21.96;;;20.92;;
54328;SDS011;40710;51.120;13.136;2022-11-20T08:42:50;21.90;;;20.86;;
54328;SDS011;40710;51.120;13.136;2022-11-20T08:45:16;23.38;;;22.04;;
54328;SDS011;40710;51.120;13.136;2022-11-20T08:47:42;21.80;;;20.76;;
54328;SDS011;40710;51.120;13.136;2022-11-20T08:50:08;21.24;;;20.28;;
54328;SDS011;40710;51.120;13.136;2022-11-20T08:52:36;22.00;;;20.73;;
54328;SDS011;40710;51.120;13.136;2022-11-20T08:55:01;20.61;;;19.48;;
54328;SDS011;40710;51.120;13.136;2022-11-20T08:57:25;19.80;;;18.91;;
54328;SDS011;40710;51.120;13.136;2022-11-20T08:59:50;20.02;;;18.93;;
54328;SDS011;40710;51.120;13.136;2022-11-20T09:02:14;20.99;;;20.17;;
54328;SDS011;40710;51.120;13.136;2022-11-20T09:04:39;22.19;;;20.97;;
54328;SDS011;40710;51.120;13.136;2022-11-20T09:07:04;20.29;;;19.48;;
54328;SDS011;40710;51.120;13.136;2022-11-20T09:09:28;20.50;;;19.66;;
54328;SDS011;40710;51.120;13.136;2022-11-20T09:11:53;20.07;;;19.35;;
54328;SDS011;40710;51.120;13.136;2022-11-20T09:14:18;20.15;;;19.45;;
54328;SDS011;40710;51.120;13.136;2022-11-20T09:16:44;20.59;;;19.51;;
54328;SDS011;40710;51.120;13.136;2022-11-20T09:19:09;26.62;;;25.28;;
54328;SDS011;40710;51.120;13.136;2022-11-20T09:21:34;25.87;;;24.56;;
54328;SDS011;40710;51.120;13.136;2022-11-20T09:23:58;17.56;;;16.75;;
54328;SDS011;40710;51.120;13.136;2022-11-20T09:26:23;14.80;;;14.07;;
54328;SDS011;40710;51.120;13.136;2022-11-20T09:28:47;14.71;;;14.08;;
54328;SDS011;40710;51.120;13.136;2022-11-20T09:31:17;14.36;;;13.83;;
54328;SDS011;40710;51.120;13.136;2022-11-20T09:33:47;15.11;;;14.43;;
54328;SDS011;40710;51.120;13.136;2022-11-20T09:36:11;16.16;;;15.27;;
54328;SDS011;40710;51.120;13.136;2022-11-20T09:38:36;15.54;;;14.83;;
54328;SDS011;40710;51.120;13.136;2022-11-20T09:41:05;15.46;;;14.72;;
54328;SDS011;40710;51.120;13.136;2022-11-20T09:43:40;15.37;;;14.55;;
54328;SDS011;40710;51.120;13.136;2022-11-20T09:49:22;16.14;;;15.49;;
54328;SDS011;40710;51.120;13.136;2022-11-20T09:51:59;16.43;;;15.72;;
54328;SDS011;40710;51.120;13.136;2022-11-20T09:54:39;16.04;;;15.38;;
54328;SDS011;40710;51.120;13.136;2022-11-20T09:57:09;16.72;;;15.79;;
54328;SDS011;40710;51.120;13.136;2022-11-20T09:59:43;17.05;;;16.01;;
54328;SDS011;40710;51.120;13.136;2022-11-20T10:04:57;16.45;;;15.86;;
54328;SDS011;40710;51.120;13.136;2022-11-20T10:07:41;17.25;;;16.63;;
54328;SDS011;40710;51.120;13.136;2022-11-20T10:10:35;17.84;;;17.02;;
54328;SDS011;40710;51.120;13.136;2022-11-20T10:16:09;19.85;;;18.80;;
54328;SDS011;40710;51.120;13.136;2022-11-20T10:24:07;17.86;;;17.15;;
54328;SDS011;40710;51.120;13.136;2022-11-20T10:27:01;22.84;;;21.70;;
54328;SDS011;40710;51.120;13.136;2022-11-20T10:29:36;32.61;;;30.73;;
54328;SDS011;40710;51.120;13.136;2022-11-20T10:32:16;19.23;;;18.08;;
54328;SDS011;40710;51.120;13.136;2022-11-20T10:39:59;22.93;;;21.65;;
54328;SDS011;40710;51.120;13.136;2022-11-20T10:42:41;23.57;;;22.42;;
54328;SDS011;40710;51.120;13.136;2022-11-20T10:47:56;23.90;;;22.58;;
54328;SDS011;40710;51.120;13.136;2022-11-20T10:50:35;25.60;;;24.08;;
54328;SDS011;40710;51.120;13.136;2022-11-20T10:53:08;25.36;;;24.08;;
54328;SDS011;40710;51.120;13.136;2022-11-20T10:55:56;25.32;;;24.10;;
54328;SDS011;40710;51.120;13.136;2022-11-20T10:58:41;25.46;;;24.31;;
54328;SDS011;40710;51.120;13.136;2022-11-20T11:01:19;25.19;;;23.81;;
54328;SDS011;40710;51.120;13.136;2022-11-20T11:03:47;25.04;;;23.83;;
54328;SDS011;40710;51.120;13.136;2022-11-20T11:06:16;24.02;;;22.93;;
54328;SDS011;40710;51.120;13.136;2022-11-20T11:08:51;25.53;;;24.02;;
54328;SDS011;40710;51.120;13.136;2022-11-20T11:11:38;25.89;;;24.55;;
54328;SDS011;40710;51.120;13.136;2022-11-20T11:14:07;25.11;;;23.88;;
54328;SDS011;40710;51.120;13.136;2022-11-20T11:16:34;25.18;;;23.89;;
54328;SDS011;40710;51.120;13.136;2022-11-20T11:19:14;25.62;;;24.21;;
54328;SDS011;40710;51.120;13.136;2022-11-20T11:21:38;25.57;;;24.13;;
54328;SDS011;40710;51.120;13.136;2022-11-20T11:24:21;25.89;;;24.28;;
54328;SDS011;40710;51.120;13.136;2022-11-20T11:26:55;26.05;;;24.74;;
54328;SDS011;40710;51.120;13.136;2022-11-20T11:29:23;25.38;;;24.08;;
54328;SDS011;40710;51.120;13.136;2022-11-20T11:31:50;26.65;;;24.99;;
54328;SDS011;40710;51.120;13.136;2022-11-20T11:34:16;25.88;;;24.37;;
54328;SDS011;40710;51.120;13.136;2022-11-20T11:36:41;25.13;;;24.04;;
54328;SDS011;40710;51.120;13.136;2022-11-20T11:39:20;34.43;;;32.37;;
54328;SDS011;40710;51.120;13.136;2022-11-20T11:41:45;25.51;;;24.10;;
54328;SDS011;40710;51.120;13.136;2022-11-20T11:52:33;24.70;;;23.63;;
54328;SDS011;40710;51.120;13.136;2022-11-20T11:55:08;25.65;;;24.49;;
54328;SDS011;40710;51.120;13.136;2022-11-20T11:57:50;28.33;;;26.58;;
54328;SDS011;40710;51.120;13.136;2022-11-20T12:00:23;24.07;;;22.85;;
54328;SDS011;40710;51.120;13.136;2022-11-20T12:05:31;25.36;;;23.91;;
54328;SDS011;40710;51.120;13.136;2022-11-20T12:08:15;25.91;;;24.18;;
54328;SDS011;40710;51.120;13.136;2022-11-20T12:13:48;24.23;;;22.89;;
54328;SDS011;40710;51.120;13.136;2022-11-20T12:16:20;23.42;;;22.33;;
54328;SDS011;40710;51.120;13.136;2022-11-20T12:18:45;21.36;;;20.23;;
54328;SDS011;40710;51.120;13.136;2022-11-20T12:29:34;18.14;;;17.22;;
54328;SDS011;40710;51.120;13.136;2022-11-20T12:34:41;19.07;;;17.84;;
54328;SDS011;40710;51.120;13.136;2022-11-20T12:39:55;15.66;;;14.65;;
54328;SDS011;40710;51.120;13.136;2022-11-20T12:57:06;15.68;;;14.92;;
54328;SDS011;40710;51.120;13.136;2022-11-20T13:05:05;14.44;;;13.60;;
54328;SDS011;40710;51.120;13.136;2022-11-20T13:07:40;13.90;;;13.15;;
54328;SDS011;40710;51.120;13.136;2022-11-20T13:10:13;13.54;;;12.93;;
54328;SDS011;40710;51.120;13.136;2022-11-20T13:13:01;13.22;;;12.57;;
54328;SDS011;40710;51.120;13.136;2022-11-20T13:18:27;15.28;;;14.53;;
54328;SDS011;40710;51.120;13.136;2022-11-20T13:21:02;14.41;;;13.81;;
54328;SDS011;40710;51.120;13.136;2022-11-20T13:23:42;15.02;;;14.08;;
54328;SDS011;40710;51.120;13.136;2022-11-20T13:26:19;14.45;;;13.63;;
54328;SDS011;40710;51.120;13.136;2022-11-20T13:28:47;14.16;;;13.47;;
54328;SDS011;40710;51.120;13.136;2022-11-20T13:31:28;14.80;;;14.02;;
54328;SDS011;40710;51.120;13.136;2022-11-20T13:33:59;14.22;;;13.65;;
54328;SDS011;40710;51.120;13.136;2022-11-20T13:36:29;15.07;;;14.28;;
54328;SDS011;40710;51.120;13.136;2022-11-20T13:38:56;14.56;;;13.96;;
54328;SDS011;40710;51.120;13.136;2022-11-20T13:44:12;14.84;;;14.11;;
54328;SDS011;40710;51.120;13.136;2022-11-20T13:46:40;14.36;;;13.70;;
54328;SDS011;40710;51.120;13.136;2022-11-20T13:49:14;27.75;;;26.21;;
54328;SDS011;40710;51.120;13.136;2022-11-20T13:51:43;17.04;;;16.20;;
54328;SDS011;40710;51.120;13.136;2022-11-20T14:02:38;14.49;;;14.00;;
54328;SDS011;40710;51.120;13.136;2022-11-20T14:05:04;15.07;;;14.27;;
54328;SDS011;40710;51.120;13.136;2022-11-20T14:07:40;15.40;;;14.49;;
54328;SDS011;40710;51.120;13.136;2022-11-20T14:10:19;15.51;;;14.54;;
54328;SDS011;40710;51.120;13.136;2022-11-20T14:12:47;14.88;;;14.32;;
54328;SDS011;40710;51.120;13.136;2022-11-20T14:18:13;15.76;;;15.08;;
54328;SDS011;40710;51.120;13.136;2022-11-20T14:20:43;15.32;;;14.68;;
54328;SDS011;40710;51.120;13.136;2022-11-20T14:23:09;17.13;;;16.21;;
54328;SDS011;40710;51.120;13.136;2022-11-20T14:25:34;17.20;;;16.26;;
54328;SDS011;40710;51.120;13.136;2022-11-20T14:28:00;17.89;;;16.79;;
54328;SDS011;40710;51.120;13.136;2022-11-20T14:30:28;18.45;;;17.65;;
54328;SDS011;40710;51.120;13.136;2022-11-20T14:33:09;19.60;;;18.88;;
54328;SDS011;40710;51.120;13.136;2022-11-20T14:35:40;18.09;;;17.24;;
54328;SDS011;40710;51.120;13.136;2022-11-20T14:38:11;18.30;;;17.51;;
54328;SDS011;40710;51.120;13.136;2022-11-20T14:40:39;19.51;;;18.57;;
54328;SDS011;40710;51.120;13.136;2022-11-20T14:43:15;19.41;;;18.35;;
54328;SDS011;40710;51.120;13.136;2022-11-20T14:45:43;18.98;;;18.03;;
54328;SDS011;40710;51.120;13.136;2022-11-20T14:48:13;18.33;;;17.42;;
54328;SDS011;40710;51.120;13.136;2022-11-20T14:50:39;19.24;;;18.30;;
54328;SDS011;40710;51.120;13.136;2022-11-20T14:53:04;18.82;;;17.77;;
54328;SDS011;40710;51.120;13.136;2022-11-20T14:55:35;19.21;;;18.42;;
54328;SDS011;40710;51.120;13.136;2022-11-20T14:58:05;19.19;;;18.22;;
54328;SDS011;40710;51.120;13.136;2022-11-20T15:00:44;20.47;;;19.56;;
54328;SDS011;40710;51.120;13.136;2022-11-20T15:03:21;21.51;;;20.32;;
54328;SDS011;40710;51.120;13.136;2022-11-20T15:05:47;21.17;;;19.96;;
54328;SDS011;40710;51.120;13.136;2022-11-20T15:08:14;20.02;;;19.14;;
54328;SDS011;40710;51.120;13.136;2022-11-20T15:10:44;20.42;;;19.31;;
54328;SDS011;40710;51.120;13.136;2022-11-20T15:13:12;20.36;;;19.25;;
54328;SDS011;40710;51.120;13.136;2022-11-20T15:15:47;20.49;;;19.51;;
54328;SDS011;40710;51.120;13.136;2022-11-20T15:18:16;20.30;;;19.46;;
54328;SDS011;40710;51.120;13.136;2022-11-20T15:20:43;20.44;;;19.51;;
54328;SDS011;40710;51.120;13.136;2022-11-20T15:23:12;20.00;;;19.25;;
54328;SDS011;40710;51.120;13.136;2022-11-20T15:25:39;20.49;;;19.54;;
54328;SDS011;40710;51.120;13.136;2022-11-20T15:28:40;20.12;;;19.31;;
54328;SDS011;40710;51.120;13.136;2022-11-20T15:31:01;19.55;;;18.66;;
54328;SDS011;40710;51.120;13.136;2022-11-20T15:33:27;20.28;;;19.38;;
54328;SDS011;40710;51.120;13.136;2022-11-20T15:35:51;21.56;;;20.20;;
54328;SDS011;40710;51.120;13.136;2022-11-20T15:38:16;20.64;;;19.52;;
54328;SDS011;40710;51.120;13.136;2022-11-20T15:40:41;20.59;;;19.55;;
54328;SDS011;40710;51.120;13.136;2022-11-20T15:43:05;21.39;;;20.24;;
54328;SDS011;40710;51.120;13.136;2022-11-20T15:48:04;21.85;;;20.72;;
54328;SDS011;40710;51.120;13.136;2022-11-20T15:50:36;21.72;;;20.51;;
54328;SDS011;40710;51.120;13.136;2022-11-20T15:53:04;21.52;;;20.41;;